Time;durP1;ratioP1;P1;durP2;ratioP2;P2;SDS_P1;SDS_P2;PMS_P1;PMS_P2;Temp;Humidity;BMP_temperature;BMP_pressure;BME280_temperature;BME280_humidity;BME280_pressure;Samples;Min_cycle;Max_cycle;Signal;HPM_P1;HPM_P2
2023/10/27 00:01:54;;;;;;;25.73;15.43;;;;;;;10.21;100.00;99142.78;5066895;28;20028;-69
2023/10/27 00:04:20;;;;;;;22.35;11.77;;;;;;;10.20;100.00;99141.19;5068121;28;20064;-69
2023/10/27 00:06:45;;;;;;;23.95;11.10;;;;;;;10.18;100.00;99138.75;5068258;28;20028;-70
2023/10/27 00:09:11;;;;;;;23.85;11.60;;;;;;;10.21;100.00;99135.59;5068153;28;20037;-69
2023/10/27 00:11:36;;;;;;;25.60;10.80;;;;;;;10.20;100.00;99143.84;5068271;28;20087;-69
2023/10/27 00:14:03;;;;;;;30.40;12.80;;;;;;;10.22;100.00;99141.75;5066882;28;20032;-70
2023/10/27 00:16:28;;;;;;;26.02;11.77;;;;;;;10.20;100.00;99134.00;5068156;28;20032;-70
2023/10/27 00:18:54;;;;;;;23.90;11.50;;;;;;;10.17;100.00;99133.66;5066359;28;20525;-70
2023/10/27 00:21:19;;;;;;;24.65;11.95;;;;;;;10.12;100.00;99123.72;5068044;28;20059;-70
2023/10/27 00:23:45;;;;;;;25.80;11.98;;;;;;;10.18;100.00;99127.28;5067778;28;20075;-70
2023/10/27 00:26:10;;;;;;;23.00;11.45;;;;;;;10.20;100.00;99126.00;5066582;28;20613;-69
2023/10/27 00:28:35;;;;;;;26.10;13.20;;;;;;;10.22;100.00;99128.44;5067988;28;20028;-70
2023/10/27 00:31:01;;;;;;;27.77;13.00;;;;;;;10.21;100.00;99119.63;5067967;28;20105;-70
2023/10/27 00:33:26;;;;;;;22.10;11.07;;;;;;;10.17;100.00;99115.81;5067964;28;20127;-69
2023/10/27 00:35:53;;;;;;;24.45;10.77;;;;;;;10.20;100.00;99130.53;5067617;28;20031;-69
2023/10/27 00:38:19;;;;;;;23.73;11.65;;;;;;;10.20;100.00;99112.69;5067489;28;20549;-69
2023/10/27 00:40:44;;;;;;;25.90;12.10;;;;;;;10.22;100.00;99115.13;5067966;28;20028;-69
2023/10/27 00:43:15;;;;;;;21.58;10.27;;;;;;;10.19;100.00;99112.91;5067930;28;20476;-69
2023/10/27 00:45:40;;;;;;;23.42;10.18;;;;;;;10.22;100.00;99112.47;5067598;28;20107;-69
2023/10/27 00:48:06;;;;;;;26.55;12.98;;;;;;;10.22;100.00;99115.94;5067697;28;20123;-69
2023/10/27 00:50:32;;;;;;;23.67;10.63;;;;;;;10.22;100.00;99104.47;5066487;28;20071;-70
2023/10/27 00:52:57;;;;;;;22.95;10.40;;;;;;;10.24;100.00;99113.00;5066422;28;20073;-69
2023/10/27 00:55:23;;;;;;;22.60;10.35;;;;;;;10.24;100.00;99116.50;5068381;28;20051;-69
2023/10/27 00:57:51;;;;;;;23.80;10.55;;;;;;;10.25;100.00;99107.44;5067990;28;20029;-70
2023/10/27 01:00:17;;;;;;;23.25;9.70;;;;;;;10.24;100.00;99105.00;5067885;28;20053;-69
2023/10/27 01:02:42;;;;;;;22.40;9.77;;;;;;;10.27;100.00;99107.19;5067932;28;20033;-69
2023/10/27 01:05:08;;;;;;;23.42;9.80;;;;;;;10.27;100.00;99110.72;5067667;28;20021;-69
2023/10/27 01:07:34;;;;;;;23.15;10.40;;;;;;;10.29;100.00;99113.13;5067892;28;20043;-69
2023/10/27 01:09:59;;;;;;;21.85;9.85;;;;;;;10.28;100.00;99109.66;5067885;28;20060;-69
2023/10/27 01:12:25;;;;;;;22.02;10.68;;;;;;;10.29;100.00;99099.81;5070055;28;20941;-70
2023/10/27 01:14:50;;;;;;;21.38;9.85;;;;;;;10.29;100.00;99107.81;5071381;28;20083;-69
2023/10/27 01:17:15;;;;;;;21.77;9.30;;;;;;;10.29;100.00;99097.94;5071369;28;20051;-70
2023/10/27 01:19:41;;;;;;;23.25;10.00;;;;;;;10.30;100.00;99104.13;5070014;28;20051;-69
2023/10/27 01:22:06;;;;;;;23.17;9.77;;;;;;;10.31;100.00;99103.84;5071355;28;20062;-69
2023/10/27 01:24:31;;;;;;;20.95;9.98;;;;;;;10.31;100.00;99106.53;5070954;28;20074;-69
2023/10/27 01:26:59;;;;;;;17.88;7.97;;;;;;;10.33;100.00;99106.28;5071175;28;20467;-69
2023/10/27 01:29:28;;;;;;;22.33;10.73;;;;;;;10.31;100.00;99098.53;5071025;28;20039;-69
2023/10/27 01:31:53;;;;;;;20.40;9.15;;;;;;;10.31;100.00;99101.19;5070007;28;20020;-70
2023/10/27 01:34:19;;;;;;;18.63;8.38;;;;;;;10.31;100.00;99098.53;5071286;28;20020;-69
2023/10/27 01:36:44;;;;;;;23.15;9.57;;;;;;;10.33;100.00;99097.50;5071161;28;20040;-70
2023/10/27 01:39:11;;;;;;;21.40;9.23;;;;;;;10.33;100.00;99105.50;5071117;28;20058;-70
2023/10/27 01:41:36;;;;;;;21.33;9.68;;;;;;;10.31;100.00;99105.72;5069585;28;20025;-69
2023/10/27 01:44:02;;;;;;;21.15;9.95;;;;;;;10.32;100.00;99099.34;5070887;28;20043;-69
2023/10/27 01:46:27;;;;;;;18.60;9.57;;;;;;;10.32;100.00;99099.34;5070637;28;20032;-70
2023/10/27 01:48:53;;;;;;;19.10;9.30;;;;;;;10.33;100.00;99094.84;5070898;28;20033;-69
2023/10/27 01:51:19;;;;;;;22.02;9.68;;;;;;;10.31;100.00;99092.41;5069467;28;20098;-70
2023/10/27 01:53:44;;;;;;;22.48;9.32;;;;;;;10.25;100.00;99083.47;5070762;28;20399;-69
2023/10/27 01:56:09;;;;;;;19.63;8.65;;;;;;;10.33;100.00;99092.97;5069350;28;20047;-70
2023/10/27 01:58:39;;;;;;;20.38;9.55;;;;;;;10.34;100.00;99088.44;5070606;28;20025;-69
2023/10/27 02:01:05;;;;;;;20.77;8.32;;;;;;;10.34;100.00;99091.13;5070620;28;20044;-69
2023/10/27 02:03:32;;;;;;;23.13;9.10;;;;;;;10.25;100.00;99075.47;5070669;28;20020;-70
2023/10/27 02:05:58;;;;;;;20.88;9.32;;;;;;;10.34;100.00;99085.78;5070419;28;20040;-69
2023/10/27 02:08:23;;;;;;;17.83;8.13;;;;;;;10.33;100.00;99078.84;5070473;28;20479;-70
2023/10/27 02:10:48;;;;;;;22.98;9.15;;;;;;;10.34;100.00;99080.47;5069091;28;20624;-69
2023/10/27 02:13:14;;;;;;;21.02;8.32;;;;;;;10.33;100.00;99070.84;5070431;28;20720;-70
2023/10/27 02:15:39;;;;;;;16.75;7.07;;;;;;;10.34;100.00;99073.25;5070270;28;20134;-69
2023/10/27 02:18:05;;;;;;;18.75;7.65;;;;;;;10.30;100.00;99062.28;5070247;28;20071;-70
2023/10/27 02:20:30;;;;;;;22.27;9.02;;;;;;;10.33;100.00;99070.84;5070159;28;20613;-70
2023/10/27 02:22:56;;;;;;;17.50;7.95;;;;;;;10.31;100.00;99068.41;5069851;28;20032;-70
2023/10/27 02:25:21;;;;;;;19.30;7.90;;;;;;;10.31;100.00;99066.56;5068598;28;20048;-69
2023/10/27 02:27:46;;;;;;;24.60;9.15;;;;;;;10.30;100.00;99067.63;5070362;28;20966;-69
2023/10/27 02:30:12;;;;;;;20.75;9.68;;;;;;;10.31;100.00;99063.09;5070100;28;20028;-70
2023/10/27 02:32:37;;;;;;;17.33;8.07;;;;;;;10.29;100.00;99062.50;5068866;28;20080;-70
2023/10/27 02:35:02;;;;;;;19.70;7.35;;;;;;;10.29;100.00;99067.84;5069943;28;20107;-70
2023/10/27 02:37:28;;;;;;;16.67;8.10;;;;;;;10.29;100.00;99057.97;5069881;28;20036;-70
2023/10/27 02:39:53;;;;;;;17.38;7.40;;;;;;;10.29;100.00;99062.50;5069755;28;20440;-70
2023/10/27 02:42:20;;;;;;;20.45;8.25;;;;;;;10.27;100.00;99062.75;5069899;28;20082;-69
2023/10/27 02:44:45;;;;;;;21.15;8.77;;;;;;;10.22;100.00;99056.50;5069637;28;20048;-70
2023/10/27 02:47:10;;;;;;;22.15;9.48;;;;;;;10.24;100.00;99059.72;5069669;28;20032;-70
2023/10/27 02:49:36;;;;;;;18.20;7.85;;;;;;;10.22;100.00;99054.66;5069787;28;20082;-70
2023/10/27 02:52:01;;;;;;;20.70;9.18;;;;;;;10.20;100.00;99056.72;5069699;28;20115;-69
2023/10/27 02:54:26;;;;;;;19.35;7.95;;;;;;;10.19;100.00;99052.47;5069571;28;20033;-69
2023/10/27 02:56:52;;;;;;;18.77;7.97;;;;;;;10.13;100.00;99048.06;5069813;28;20036;-70
2023/10/27 02:59:17;;;;;;;19.60;8.52;;;;;;;10.12;100.00;99045.66;5068291;28;20063;-69
2023/10/27 03:01:46;;;;;;;17.95;7.88;;;;;;;10.16;100.00;99052.91;5069591;28;20043;-69
2023/10/27 03:04:12;;;;;;;21.00;9.05;;;;;;;10.12;100.00;99040.34;5069256;28;20056;-70
2023/10/27 03:06:38;;;;;;;20.30;8.55;;;;;;;10.15;100.00;99045.19;5068022;28;20155;-69
2023/10/27 03:09:04;;;;;;;19.88;8.43;;;;;;;10.13;100.00;99041.94;5067827;28;20127;-70
2023/10/27 03:11:29;;;;;;;17.50;8.45;;;;;;;10.08;100.00;99032.78;5068011;28;20036;-69
2023/10/27 03:13:55;;;;;;;15.68;7.75;;;;;;;10.14;100.00;99047.03;5069240;28;20028;-70
2023/10/27 03:16:21;;;;;;;20.45;8.20;;;;;;;10.15;100.00;99042.53;5069277;28;20075;-70
2023/10/27 03:18:48;;;;;;;18.42;7.63;;;;;;;10.14;100.00;99040.88;5069348;28;20963;-70
2023/10/27 03:21:14;;;;;;;20.92;7.80;;;;;;;10.15;100.00;99045.19;5069210;28;20036;-70
2023/10/27 03:23:39;;;;;;;21.52;7.57;;;;;;;10.14;100.00;99043.53;5068852;28;20043;-69
2023/10/27 03:26:04;;;;;;;20.90;8.82;;;;;;;10.08;100.00;99035.47;5068831;28;20139;-70
2023/10/27 03:28:31;;;;;;;16.83;7.47;;;;;;;10.13;100.00;99033.94;5069031;28;20032;-70
2023/10/27 03:30:57;;;;;;;20.40;9.30;;;;;;;10.14;100.00;99038.22;5069001;28;20116;-70
2023/10/27 03:33:22;;;;;;;18.92;8.10;;;;;;;10.14;100.00;99035.56;5068539;28;20032;-69
2023/10/27 03:35:47;;;;;;;20.33;8.48;;;;;;;10.09;100.00;99031.75;5068741;28;20070;-69
2023/10/27 03:38:13;;;;;;;20.20;8.27;;;;;;;10.12;100.00;99033.16;5068701;28;20032;-69
2023/10/27 03:40:40;;;;;;;19.00;7.95;;;;;;;10.10;100.00;99032.56;5068854;28;20127;-70
2023/10/27 03:43:05;;;;;;;20.10;7.82;;;;;;;10.10;100.00;99030.72;5068709;28;20051;-70
2023/10/27 03:45:30;;;;;;;16.92;7.90;;;;;;;10.13;100.00;99028.63;5068737;28;20120;-70
2023/10/27 03:47:56;;;;;;;18.02;6.50;;;;;;;10.12;100.00;99033.16;5068607;28;20044;-69
2023/10/27 03:50:21;;;;;;;19.73;7.70;;;;;;;10.13;100.00;99028.63;5068750;28;20067;-70
2023/10/27 03:52:46;;;;;;;15.77;6.63;;;;;;;10.10;100.00;99029.91;5068754;28;20032;-69
2023/10/27 03:55:12;;;;;;;18.65;7.60;;;;;;;10.06;100.00;99021.59;5068626;28;20127;-70
2023/10/27 03:57:39;;;;;;;18.02;6.63;;;;;;;10.11;100.00;99028.84;5050782;28;20091;-70
2023/10/27 04:00:07;;;;;;;19.23;7.65;;;;;;;10.09;100.00;99031.75;5068510;28;20058;-70
2023/10/27 04:02:36;;;;;;;17.77;7.45;;;;;;;10.08;100.00;99029.31;5068501;28;20102;-69
2023/10/27 04:05:04;;;;;;;17.83;6.68;;;;;;;10.06;100.00;99026.09;5068528;28;20036;-70
2023/10/27 04:07:29;;;;;;;16.20;7.65;;;;;;;10.02;100.00;99023.09;5068765;28;20506;-69
2023/10/27 04:09:55;;;;;;;14.20;6.28;;;;;;;10.03;100.00;99019.41;5068316;28;20028;-70
2023/10/27 04:12:20;;;;;;;30.42;10.07;;;;;;;10.03;100.00;99024.75;5067068;28;20031;-70
2023/10/27 04:14:45;;;;;;;19.08;7.32;;;;;;;10.02;100.00;99017.78;5068452;28;20029;-69
2023/10/27 04:17:11;;;;;;;14.88;7.35;;;;;;;9.99;100.00;99023.59;5068465;28;20456;-69
2023/10/27 04:19:36;;;;;;;15.38;6.20;;;;;;;10.00;100.00;99019.06;5068236;28;20079;-69
2023/10/27 04:22:02;;;;;;;15.30;6.97;;;;;;;9.97;100.00;99023.00;5068563;28;20057;-69
2023/10/27 04:24:28;;;;;;;15.88;7.05;;;;;;;9.98;100.00;99026.47;5068220;28;20048;-69
2023/10/27 04:26:53;;;;;;;18.08;6.95;;;;;;;9.95;100.00;99027.75;5068162;28;20456;-70
2023/10/27 04:29:19;;;;;;;17.90;7.20;;;;;;;9.95;100.00;99026.94;5068624;28;20123;-70
2023/10/27 04:31:45;;;;;;;18.40;6.22;;;;;;;9.91;100.00;99026.63;5068370;28;20039;-69
2023/10/27 04:34:10;;;;;;;14.43;5.57;;;;;;;9.92;100.00;99027.44;5066983;28;20162;-69
2023/10/27 04:36:36;;;;;;;16.23;5.90;;;;;;;9.91;100.00;99023.16;5068158;28;20115;-69
2023/10/27 04:39:03;;;;;;;16.95;6.80;;;;;;;9.93;100.00;99029.03;5066889;28;20041;-69
2023/10/27 04:41:30;;;;;;;17.63;7.63;;;;;;;9.93;100.00;99035.19;5068152;28;20040;-69
2023/10/27 04:43:56;;;;;;;16.73;5.57;;;;;;;9.93;100.00;99029.03;5068191;28;20395;-70
2023/10/27 04:46:21;;;;;;;16.95;5.53;;;;;;;9.94;100.00;99025.34;5069775;28;20036;-70
2023/10/27 04:48:47;;;;;;;15.80;5.78;;;;;;;9.92;100.00;99022.91;5072154;28;20508;-69
2023/10/27 04:51:12;;;;;;;18.88;7.00;;;;;;;9.93;100.00;99031.69;5072132;28;20478;-69
2023/10/27 04:53:38;;;;;;;13.90;6.35;;;;;;;9.92;100.00;99024.75;5071965;28;20146;-70
2023/10/27 04:56:03;;;;;;;14.15;5.75;;;;;;;9.92;100.00;99027.44;5072145;28;20050;-70
2023/10/27 04:58:29;;;;;;;14.77;6.75;;;;;;;9.91;100.00;99031.97;5071970;28;20035;-70
2023/10/27 05:00:54;;;;;;;13.68;5.60;;;;;;;9.91;100.00;99028.50;5071823;28;20085;-69
2023/10/27 05:03:19;;;;;;;16.85;7.50;;;;;;;9.90;100.00;99025.00;5071731;28;20051;-69
2023/10/27 05:05:45;;;;;;;13.18;5.97;;;;;;;9.90;100.00;99032.19;5071291;28;20032;-69
2023/10/27 05:08:10;;;;;;;14.27;5.82;;;;;;;9.91;100.00;99020.50;5071611;28;20068;-69
2023/10/27 05:10:36;;;;;;;18.58;6.32;;;;;;;9.91;100.00;99023.97;5069993;28;20119;-69
2023/10/27 05:13:03;;;;;;;14.00;5.57;;;;;;;9.91;100.00;99021.31;5071441;28;20729;-70
2023/10/27 05:15:28;;;;;;;14.32;6.07;;;;;;;9.87;100.00;99012.97;5071327;28;20033;-70
2023/10/27 05:17:54;;;;;;;14.52;6.22;;;;;;;9.92;100.00;99014.13;5069983;28;20039;-72
2023/10/27 05:20:19;;;;;;;15.32;6.53;;;;;;;9.91;100.00;99015.19;5069904;28;20040;-71
2023/10/27 05:22:45;;;;;;;20.00;7.75;;;;;;;9.91;100.00;99017.84;5069800;28;20043;-71
2023/10/27 05:25:10;;;;;;;13.13;5.95;;;;;;;9.89;100.00;99007.41;5070581;28;20052;-69
2023/10/27 05:27:35;;;;;;;12.70;6.13;;;;;;;9.88;100.00;99016.47;5071156;28;20476;-70
2023/10/27 05:30:02;;;;;;;16.30;6.70;;;;;;;9.84;100.00;99007.31;5071225;28;20052;-70
2023/10/27 05:32:29;;;;;;;13.82;5.57;;;;;;;9.87;100.00;99012.16;5070858;28;20087;-70
2023/10/27 05:34:55;;;;;;;16.95;6.10;;;;;;;9.84;100.00;99013.44;5071054;28;20020;-70
2023/10/27 05:37:21;;;;;;;14.73;6.25;;;;;;;9.83;100.00;99011.03;5070822;28;20406;-70
2023/10/27 05:39:47;;;;;;;15.73;6.45;;;;;;;9.82;100.00;99012.91;5070915;28;20379;-69
2023/10/27 05:42:13;;;;;;;13.70;7.20;;;;;;;9.83;100.00;99011.03;5070675;28;20028;-69
2023/10/27 05:44:41;;;;;;;14.93;6.05;;;;;;;9.78;100.00;99003.75;5070867;28;20032;-70
2023/10/27 05:47:06;;;;;;;12.52;5.95;;;;;;;9.78;100.00;99003.75;5069146;28;20118;-69
2023/10/27 05:49:31;;;;;;;19.38;6.82;;;;;;;9.78;100.00;99008.28;5070731;28;20060;-70
2023/10/27 05:51:58;;;;;;;17.65;6.68;;;;;;;9.77;100.00;99001.31;5070715;28;20029;-69
2023/10/27 05:54:23;;;;;;;15.25;5.90;;;;;;;9.72;100.00;99002.03;5070769;28;20345;-70
2023/10/27 05:56:48;;;;;;;15.10;6.43;;;;;;;9.71;100.00;98997.75;5070132;28;20039;-69
2023/10/27 05:59:14;;;;;;;17.42;6.60;;;;;;;9.76;100.00;99000.50;5053139;28;20090;-70
2023/10/27 06:01:39;;;;;;;12.88;5.55;;;;;;;9.73;100.00;99002.84;5070565;28;20162;-70
2023/10/27 06:04:05;;;;;;;17.17;7.05;;;;;;;9.70;100.00;99004.13;5070428;28;20025;-69
2023/10/27 06:06:30;;;;;;;13.13;5.65;;;;;;;9.64;100.00;98989.91;5069110;28;20043;-70
2023/10/27 06:08:55;;;;;;;19.35;6.45;;;;;;;9.65;100.00;98994.19;5070424;28;20119;-69
2023/10/27 06:11:21;;;;;;;13.40;5.32;;;;;;;9.74;100.00;99015.91;5070308;28;20036;-69
2023/10/27 06:13:46;;;;;;;12.80;5.18;;;;;;;9.75;100.00;99011.41;5070120;28;20052;-70
2023/10/27 06:16:12;;;;;;;18.33;7.80;;;;;;;9.75;100.00;99014.88;5070098;28;20024;-70
2023/10/27 06:18:38;;;;;;;15.02;6.25;;;;;;;9.71;100.00;99005.72;5069932;28;20064;-70
2023/10/27 06:21:04;;;;;;;15.60;6.13;;;;;;;9.70;100.00;99001.47;5068608;28;20116;-70
2023/10/27 06:23:29;;;;;;;15.65;6.03;;;;;;;9.65;100.00;98996.84;5068710;28;20139;-69
2023/10/27 06:25:55;;;;;;;14.95;5.50;;;;;;;9.74;100.00;99009.78;5069855;28;20117;-70
2023/10/27 06:28:20;;;;;;;13.18;6.32;;;;;;;9.74;100.00;99010.56;5068728;28;20381;-70
2023/10/27 06:30:46;;;;;;;20.60;7.30;;;;;;;9.76;100.00;99013.00;5069920;28;20056;-69
2023/10/27 06:33:11;;;;;;;15.35;6.90;;;;;;;9.75;100.00;99008.75;5069748;28;20506;-70
2023/10/27 06:35:36;;;;;;;16.10;6.35;;;;;;;9.74;100.00;99013.25;5069103;28;20450;-69
2023/10/27 06:38:02;;;;;;;17.90;6.93;;;;;;;9.73;100.00;99016.16;5068778;28;20047;-70
2023/10/27 06:40:27;;;;;;;14.50;7.00;;;;;;;9.71;100.00;99016.38;5068539;28;20506;-70
2023/10/27 06:42:52;;;;;;;17.55;7.40;;;;;;;9.71;100.00;99016.38;5068961;28;20395;-70
2023/10/27 06:45:18;;;;;;;15.10;6.50;;;;;;;9.69;100.00;99015.81;5069395;28;20456;-70
2023/10/27 06:47:43;;;;;;;15.05;6.72;;;;;;;9.60;100.00;98999.41;5069528;28;20388;-69
2023/10/27 06:50:09;;;;;;;19.10;6.32;;;;;;;9.65;100.00;99009.34;5069487;28;20030;-70
2023/10/27 06:52:34;;;;;;;17.25;7.35;;;;;;;9.59;100.00;99013.75;5069114;28;20051;-69
2023/10/27 06:55:01;;;;;;;20.85;7.95;;;;;;;9.60;100.00;99012.72;5068913;28;20032;-70
2023/10/27 06:57:27;;;;;;;20.63;7.20;;;;;;;9.50;100.00;98995.72;5069226;28;20043;-70
2023/10/27 06:59:55;;;;;;;17.25;7.22;;;;;;;9.59;100.00;99015.63;5068753;28;20396;-70
2023/10/27 07:02:24;;;;;;;18.35;6.90;;;;;;;9.58;100.00;99012.13;5069000;28;20032;-70
2023/10/27 07:04:50;;;;;;;15.82;6.88;;;;;;;9.62;100.00;99017.81;5067089;28;20033;-70
2023/10/27 07:07:15;;;;;;;17.73;6.78;;;;;;;9.62;100.00;99020.47;5068289;28;20106;-70
2023/10/27 07:09:41;;;;;;;17.73;6.93;;;;;;;9.64;100.00;99016.53;5065407;28;20038;-70
2023/10/27 07:12:08;;;;;;;15.20;6.60;;;;;;;9.65;100.00;99018.13;5068620;28;20035;-70
2023/10/27 07:14:33;;;;;;;18.77;6.10;;;;;;;9.71;100.00;99029.69;5067536;28;20119;-70
2023/10/27 07:17:00;;;;;;;18.38;7.97;;;;;;;9.73;100.00;99029.47;5068608;28;20642;-71
2023/10/27 07:19:25;;;;;;;16.73;7.40;;;;;;;9.74;100.00;99026.56;5068835;28;20101;-70
2023/10/27 07:21:51;;;;;;;18.27;7.35;;;;;;;9.74;100.00;99034.53;5068300;28;20032;-69
2023/10/27 07:24:17;;;;;;;17.90;7.05;;;;;;;9.74;100.00;99039.06;5065650;28;20814;-69
2023/10/27 07:26:42;;;;;;;17.67;6.72;;;;;;;9.77;100.00;99043.91;5065473;28;20028;-68
2023/10/27 07:29:07;;;;;;;16.48;6.40;;;;;;;9.74;100.00;99044.38;5065263;28;20132;-68
2023/10/27 07:31:33;;;;;;;15.20;6.63;;;;;;;9.76;100.00;99042.31;5065397;28;20729;-68
2023/10/27 07:33:58;;;;;;;14.43;6.22;;;;;;;9.70;100.00;99029.94;5065405;28;20038;-69
2023/10/27 07:36:24;;;;;;;15.70;6.32;;;;;;;9.78;100.00;99048.19;5065411;28;20564;-72
2023/10/27 07:38:50;;;;;;;15.32;7.15;;;;;;;9.78;100.00;99051.66;5064944;28;20032;-72
2023/10/27 07:41:15;;;;;;;14.23;7.50;;;;;;;9.78;100.00;99042.88;5064476;28;20035;-70
2023/10/27 07:43:40;;;;;;;14.20;6.25;;;;;;;9.80;100.00;99052.25;5063399;28;20534;-69
2023/10/27 07:46:06;;;;;;;19.70;7.07;;;;;;;9.81;100.00;99053.84;5065407;28;20407;-69
2023/10/27 07:48:32;;;;;;;15.68;6.80;;;;;;;9.81;100.00;99058.38;5065383;28;20044;-70
2023/10/27 07:50:57;;;;;;;14.43;6.05;;;;;;;9.80;100.00;99059.44;5065444;28;20035;-71
2023/10/27 07:53:24;;;;;;;15.20;6.70;;;;;;;9.80;100.00;99054.91;5065208;28;20106;-69
2023/10/27 07:55:50;;;;;;;13.55;6.45;;;;;;;9.81;100.00;99055.72;5065825;28;20020;-71
2023/10/27 07:58:15;;;;;;;16.02;7.28;;;;;;;9.81;100.00;99056.53;5065723;28;20043;-70
2023/10/27 08:00:41;;;;;;;16.65;6.70;;;;;;;9.80;100.00;99052.25;5064090;28;20028;-70
2023/10/27 08:03:06;;;;;;;14.23;6.28;;;;;;;9.74;100.00;99055.84;5064634;28;20349;-69
2023/10/27 08:05:31;;;;;;;14.88;6.57;;;;;;;9.75;100.00;99059.31;5064610;28;20032;-69
2023/10/27 08:07:57;;;;;;;13.35;6.50;;;;;;;9.69;100.00;99050.41;5065206;28;20036;-69
2023/10/27 08:10:22;;;;;;;16.10;6.28;;;;;;;9.72;100.00;99062.44;5065069;28;20040;-70
2023/10/27 08:12:47;;;;;;;15.82;7.22;;;;;;;9.75;100.00;99076.09;5063719;28;20028;-69
2023/10/27 08:15:13;;;;;;;13.80;6.55;;;;;;;9.72;100.00;99065.09;5064275;28;20028;-69
2023/10/27 08:17:38;;;;;;;10.10;4.55;;;;;;;9.76;100.00;99067.06;5062763;28;20058;-69
2023/10/27 08:20:04;;;;;;;12.75;5.38;;;;;;;9.77;100.00;99070.53;5062999;28;20084;-68
2023/10/27 08:22:32;;;;;;;9.68;4.50;;;;;;;9.76;100.00;99075.06;5065166;28;20087;-69
2023/10/27 08:24:58;;;;;;;13.63;5.32;;;;;;;9.72;100.00;99073.09;5064915;28;20044;-69
2023/10/27 08:27:23;;;;;;;12.23;5.38;;;;;;;9.79;100.00;99077.25;5065352;28;20024;-68
2023/10/27 08:29:53;;;;;;;11.35;5.43;;;;;;;9.82;100.00;99083.94;5065297;28;20028;-69
2023/10/27 08:32:18;;;;;;;12.63;6.07;;;;;;;9.81;100.00;99079.69;5064963;28;20507;-72
2023/10/27 08:34:43;;;;;;;12.45;5.68;;;;;;;9.87;100.00;99073.41;5064770;28;20035;-70
2023/10/27 08:37:09;;;;;;;15.43;5.05;;;;;;;9.87;100.00;99076.06;5066412;28;20032;-69
2023/10/27 08:39:34;;;;;;;8.90;4.20;;;;;;;9.84;100.00;99063.22;5067458;28;20084;-70
2023/10/27 08:42:00;;;;;;;8.98;5.30;;;;;;;9.88;100.00;99067.84;5066849;28;20035;-70
2023/10/27 08:44:27;;;;;;;10.63;5.18;;;;;;;9.84;100.00;99058.69;5064913;28;20021;-70
2023/10/27 08:46:55;;;;;;;10.77;4.78;;;;;;;9.88;100.00;99067.06;5064677;28;20194;-70
2023/10/27 08:49:21;;;;;;;9.77;5.57;;;;;;;9.96;100.00;99073.84;5066571;28;20037;-69
2023/10/27 08:51:46;;;;;;;9.18;4.18;;;;;;;9.99;100.00;99087.50;5066105;28;20159;-67
2023/10/27 08:54:12;;;;;;;8.13;3.90;;;;;;;10.04;100.00;99100.91;5066345;28;20029;-68
2023/10/27 08:56:37;;;;;;;14.05;5.43;;;;;;;10.05;100.00;99099.88;5066783;28;20036;-67
2023/10/27 08:59:05;;;;;;;22.73;10.68;;;;;;;10.06;100.00;99090.00;5067528;28;20506;-68
2023/10/27 09:01:30;;;;;;;15.43;5.75;;;;;;;10.10;100.00;99097.31;5067412;28;20032;-68
2023/10/27 09:04:29;;;;;;;12.30;4.70;;;;;;;10.16;100.00;99106.19;5065915;28;20056;-68
2023/10/27 09:06:54;;;;;;;8.48;3.88;;;;;;;10.18;100.00;99105.97;5033956;28;20121;-68
2023/10/27 09:09:20;;;;;;;8.55;4.25;;;;;;;10.12;100.00;99096.28;5067181;28;20849;-68
2023/10/27 09:11:48;;;;;;;9.20;4.15;;;;;;;10.20;100.00;99101.22;5067173;28;20353;-68
2023/10/27 09:14:17;;;;;;;9.43;5.10;;;;;;;10.22;100.00;99107.94;5067212;28;20090;-68
2023/10/27 09:16:43;;;;;;;8.25;3.53;;;;;;;10.22;100.00;99102.59;5067223;28;20052;-67
2023/10/27 09:19:39;;;;;;;7.20;3.65;;;;;;;10.30;100.00;99115.56;5067210;28;20710;-68
2023/10/27 09:22:19;;;;;;;5.70;3.33;;;;;;;10.29;100.00;99113.13;5050427;28;20045;-67
2023/10/27 09:24:46;;;;;;;5.68;2.78;;;;;;;10.30;100.00;99117.44;5066675;28;20052;-67
2023/10/27 09:27:13;;;;;;;6.93;3.40;;;;;;;10.29;100.00;99113.13;5066462;28;20029;-68
2023/10/27 09:29:42;;;;;;;7.80;3.40;;;;;;;10.34;100.00;99117.75;5066705;28;20024;-68
2023/10/27 09:32:27;;;;;;;5.70;3.40;;;;;;;10.36;100.00;99121.81;5066552;28;20036;-68
2023/10/27 09:35:17;;;;;;;5.63;2.95;;;;;;;10.36;100.00;99123.66;5068475;28;20029;-68
2023/10/27 09:37:43;;;;;;;8.15;3.92;;;;;;;10.33;100.00;99119.63;5068542;28;20032;-68
2023/10/27 09:40:11;;;;;;;7.22;3.63;;;;;;;10.38;100.00;99125.03;5068557;28;20094;-68
2023/10/27 09:42:37;;;;;;;9.60;4.03;;;;;;;10.42;100.00;99122.72;5068758;28;20044;-68
2023/10/27 09:45:11;;;;;;;9.45;3.85;;;;;;;10.46;100.00;99122.00;5068510;28;20029;-67
2023/10/27 09:47:47;;;;;;;8.40;3.97;;;;;;;10.49;100.00;99126.84;5068359;28;20103;-68
2023/10/27 09:50:19;;;;;;;8.38;4.35;;;;;;;10.45;100.00;99122.22;5068500;28;20025;-68
2023/10/27 09:52:46;;;;;;;8.63;5.28;;;;;;;10.45;100.00;99127.56;5068515;28;20395;-68
2023/10/27 09:55:13;;;;;;;7.45;4.28;;;;;;;10.48;100.00;99127.09;5069398;28;20039;-68
2023/10/27 09:57:41;;;;;;;8.48;3.47;;;;;;;10.46;100.00;99119.34;5069379;28;20028;-68
2023/10/27 10:00:08;;;;;;;10.52;4.05;;;;;;;10.49;100.00;99107.38;5069766;28;20024;-68
2023/10/27 10:02:36;;;;;;;12.07;4.53;;;;;;;10.48;100.00;99095.94;5070065;28;20051;-67
2023/10/27 10:05:02;;;;;;;7.85;4.05;;;;;;;10.57;100.00;99108.84;5068726;28;20033;-68
2023/10/27 10:07:33;;;;;;;7.57;3.88;;;;;;;10.57;100.00;99123.00;5070213;28;20089;-68
2023/10/27 10:10:18;;;;;;;8.90;3.58;;;;;;;10.59;100.00;99117.44;5070067;28;20556;-68
2023/10/27 10:13:13;;;;;;;7.47;4.28;;;;;;;10.64;100.00;99112.19;5069912;28;20095;-68
2023/10/27 10:15:41;;;;;;;8.30;3.63;;;;;;;10.61;100.00;99110.81;5068682;28;20039;-68
2023/10/27 10:18:27;;;;;;;7.72;3.63;;;;;;;10.63;100.00;99113.22;5070057;28;20057;-68
2023/10/27 10:20:58;;;;;;;11.07;4.45;;;;;;;10.68;100.00;99119.44;5058669;28;20506;-68
2023/10/27 10:23:46;;;;;;;11.15;4.47;;;;;;;10.71;100.00;99118.97;5069823;28;20040;-68
2023/10/27 10:26:11;;;;;;;9.65;3.72;;;;;;;10.73;100.00;99119.53;5069796;28;20150;-68
2023/10/27 10:28:37;;;;;;;6.85;3.70;;;;;;;10.80;100.00;99123.94;5069952;28;20044;-68
2023/10/27 10:31:16;;;;;;;7.82;3.58;;;;;;;10.82;100.00;99129.81;5068644;28;20048;-68
2023/10/27 10:33:45;;;;;;;8.95;4.25;;;;;;;10.85;100.00;99138.16;5069748;28;20097;-68
2023/10/27 10:36:14;;;;;;;9.25;5.25;;;;;;;10.85;100.00;99140.81;5069840;28;20021;-68
2023/10/27 10:38:44;;;;;;;9.43;4.28;;;;;;;10.82;100.00;99138.66;5068489;28;20032;-67
2023/10/27 10:41:10;;;;;;;9.90;4.68;;;;;;;10.81;100.00;99145.00;5069560;28;20032;-68
2023/10/27 10:43:36;;;;;;;8.93;4.18;;;;;;;10.75;100.00;99138.78;5069561;28;20044;-68
2023/10/27 10:46:12;;;;;;;9.38;5.22;;;;;;;10.81;100.00;99142.34;5069227;28;20082;-67
2023/10/27 10:48:45;;;;;;;9.27;4.75;;;;;;;10.76;100.00;99136.91;5069507;28;20032;-68
2023/10/27 10:51:16;;;;;;;10.65;5.50;;;;;;;10.82;100.00;99151.97;5069429;28;20243;-67
2023/10/27 10:53:43;;;;;;;9.57;5.57;;;;;;;10.77;100.00;99146.56;5069465;28;20486;-67
2023/10/27 10:56:09;;;;;;;11.25;6.07;;;;;;;10.79;100.00;99155.09;5069335;28;20024;-67
2023/10/27 10:58:36;;;;;;;9.70;4.97;;;;;;;10.79;100.00;99151.63;5068878;28;20119;-66
2023/10/27 11:01:03;;;;;;;13.52;6.35;;;;;;;10.79;100.00;99148.97;5066745;28;20040;-66
2023/10/27 11:03:34;;;;;;;11.02;5.30;;;;;;;10.75;100.00;99148.66;5064978;28;20714;-68
2023/10/27 11:06:05;;;;;;;10.00;4.88;;;;;;;10.72;100.00;99147.25;5066688;28;20394;-67
2023/10/27 11:08:37;;;;;;;7.10;3.67;;;;;;;10.66;100.00;99140.22;5066489;28;20025;-67
2023/10/27 11:11:07;;;;;;;6.88;4.00;;;;;;;10.57;100.00;99130.19;5066355;28;20036;-67
2023/10/27 11:13:43;;;;;;;7.32;3.40;;;;;;;10.57;100.00;99143.50;5066536;28;20103;-67
2023/10/27 11:16:19;;;;;;;8.88;3.55;;;;;;;10.58;100.00;99147.78;5066461;28;20021;-70
2023/10/27 11:18:45;;;;;;;6.93;2.97;;;;;;;10.52;100.00;99145.03;5066499;28;20036;-68
2023/10/27 11:21:21;;;;;;;8.85;3.70;;;;;;;10.47;100.00;99130.78;5066248;28;20028;-67